Relatórios de METAR próximas

 

LPAR - Alverca, Portugal
Distance from station: S 38km
Actualizado: 18/01/2021 13:00
Céu Limpo
Céu Limpo
 Vento de ENE
Vento: ENE 13 km/h
Temperatura: 11°C
Ponto de Orvalho: 5°C
Humidade: 67%
Barómetro: 1026 hPa
Resumo: Céu Limpo
Visibilidade: greater than 10 km
2021/01/18 13:00 LPAR 181300Z 06007KT 030V110 CAVOK 11/05 Q1026
LPPT - Lisbon/Portela, Portugal
Distance from station: S 52km
Actualizado: 18/01/2021 13:00
Céu Limpo
Céu Limpo
 Vento de ENE
Vento: ENE 7 km/h
Temperatura: 11°C
Ponto de Orvalho: 5°C
Humidade: 67%
Barómetro: 1026 hPa
Resumo: Céu Limpo
Visibilidade: greater than 10 km
2021/01/18 13:00 LPPT 181300Z 06004KT 360V110 CAVOK 11/05 Q1026
 
LPST - Sintra/Granja (a, Portugal
Distance from station: SSO 53km
Actualizado: 18/01/2021 13:00
Céu Limpo
Céu Limpo
 Vento de SSE
Vento: SSE 7 km/h
Temperatura: 16°C
Ponto de Orvalho: 2°C
Humidade: 39%
Barómetro: 1026 hPa
Resumo: Céu Limpo
Visibilidade: greater than 10 km
2021/01/18 13:00 LPST 181300Z 15004KT 120V200 CAVOK 16/02 Q1026
LPMT - Montijo (por-Afb, Portugal
Distance from station: S 59km
Actualizado: 18/01/2021 13:00
Céu Limpo
Céu Limpo
 Vento de NNE
Vento: NNE 11 km/h
Temperatura: 11°C
Ponto de Orvalho: 6°C
Humidade: 72%
Barómetro: 1026 hPa
Resumo: Céu Limpo
Visibilidade: greater than 10 km
2021/01/18 13:00 LPMT 181300Z 02006KT CAVOK 11/06 Q1026
 
LPCS - Cascais, Portugal
Distance from station: SSO 63km
Actualizado: 18/01/2021 13:00
Céu Limpo
Céu Limpo
 Vento de ENE
Vento: ENE 9 km/h
Temperatura: 15°C
Ponto de Orvalho: 3°C
Humidade: 45%
Barómetro: 1026 hPa
Resumo: Céu Limpo
Visibilidade: greater than 10 km
2021/01/18 13:00 LPCS 181300Z 07005KT 040V110 CAVOK 15/03 Q1026
LPMR - Monte Real(Por-A, Portugal
Distance from station: N 67km
Actualizado: 18/01/2021 13:00
Céu Limpo
Céu Limpo
 Vento de SSE
Vento: SSE 9 km/h
Temperatura: 15°C
Ponto de Orvalho: 3°C
Humidade: 45%
Barómetro: 1026 hPa
Resumo: Céu Limpo
Visibilidade: greater than 10 km
2021/01/18 13:00 LPMR 181300Z 16005KT 130V200 CAVOK 15/03 Q1026